Time;durP1;ratioP1;P1;durP2;ratioP2;P2;SDS_P1;SDS_P2;PMS_P1;PMS_P2;Temp;Humidity;BMP_temperature;BMP_pressure;BME280_temperature;BME280_humidity;BME280_pressure;Samples;Min_cycle;Max_cycle;Signal;HPM_P1;HPM_P2
2023/06/21 00:02:17;;;;;;;22.33;17.98;;;19.70;99.90;;;;;;4971077;28;20067;-71
2023/06/21 00:04:43;;;;;;;21.02;17.50;;;19.70;99.90;;;;;;4924758;28;207912;-71
2023/06/21 00:07:09;;;;;;;23.63;18.13;;;19.70;99.90;;;;;;4969251;28;20061;-71
2023/06/21 00:09:36;;;;;;;21.17;16.38;;;19.70;99.90;;;;;;4925367;28;207052;-72
2023/06/21 00:12:02;;;;;;;19.25;16.50;;;19.70;99.90;;;;;;4970202;28;20073;-72
2023/06/21 00:14:28;;;;;;;18.27;14.85;;;19.70;99.90;;;;;;4919514;28;208285;-71
2023/06/21 00:16:54;;;;;;;21.75;15.82;;;19.60;99.90;;;;;;4973928;28;20104;-69
2023/06/21 00:19:20;;;;;;;20.88;16.48;;;19.60;99.90;;;;;;4922093;28;207258;-69
2023/06/21 00:21:46;;;;;;;23.02;16.73;;;19.60;99.90;;;;;;4971134;28;20057;-70
2023/06/21 00:24:13;;;;;;;20.48;16.40;;;19.60;99.90;;;;;;4925405;28;218988;-70
2023/06/21 00:26:39;;;;;;;19.98;15.10;;;19.60;99.90;;;;;;4980213;28;20062;-70
2023/06/21 00:29:05;;;;;;;20.15;15.25;;;19.60;99.90;;;;;;4938060;28;206209;-69
2023/06/21 00:31:31;;;;;;;21.45;16.73;;;19.60;99.90;;;;;;4973866;28;20054;-69
2023/06/21 00:33:57;;;;;;;18.55;15.77;;;19.60;99.90;;;;;;4920838;28;207683;-70
2023/06/21 00:36:24;;;;;;;18.98;15.77;;;19.60;99.90;;;;;;4988840;28;20046;-69
2023/06/21 00:38:50;;;;;;;23.08;16.48;;;19.60;99.90;;;;;;4919199;28;207466;-70
2023/06/21 00:41:16;;;;;;;19.88;16.60;;;19.60;99.90;;;;;;4947600;28;20065;-70
2023/06/21 00:43:42;;;;;;;19.65;15.57;;;19.60;99.90;;;;;;4917649;28;207379;-70
2023/06/21 00:46:08;;;;;;;18.98;15.20;;;19.60;99.90;;;;;;4976135;28;20051;-70
2023/06/21 00:48:34;;;;;;;21.63;16.60;;;19.50;99.90;;;;;;4915087;28;211364;-70
2023/06/21 00:51:00;;;;;;;19.75;16.15;;;19.60;99.90;;;;;;5004478;28;20527;-71
2023/06/21 00:53:29;;;;;;;21.37;16.03;;;19.50;99.90;;;;;;4909445;28;208849;-70
2023/06/21 00:55:55;;;;;;;20.45;16.40;;;19.50;99.90;;;;;;4971811;28;20054;-69
2023/06/21 00:58:21;;;;;;;18.77;15.23;;;19.50;99.90;;;;;;4934301;28;206786;-70
2023/06/21 01:00:49;;;;;;;21.08;15.77;;;19.50;99.90;;;;;;4990473;28;20082;-71
2023/06/21 01:03:17;;;;;;;19.70;15.50;;;19.50;99.90;;;;;;4978984;28;205465;-71
2023/06/21 01:06:02;;;;;;;19.42;14.93;;;19.50;99.90;;;;;;4911518;28;20074;-70
2023/06/21 01:08:37;;;;;;;18.50;15.60;;;19.50;99.90;;;;;;4921604;28;209700;-70
2023/06/21 01:11:19;;;;;;;20.65;15.07;;;19.50;99.90;;;;;;5006955;28;20081;-70
2023/06/21 01:14:16;;;;;;;21.40;16.35;;;19.50;99.90;;;;;;4932214;28;207546;-71
2023/06/21 01:16:45;;;;;;;21.67;16.55;;;19.40;99.90;;;;;;4995444;28;20609;-71
2023/06/21 01:19:33;;;;;;;19.40;14.98;;;19.40;99.90;;;;;;4940059;28;212876;-70
2023/06/21 01:22:07;;;;;;;19.65;15.30;;;19.40;99.90;;;;;;4995135;28;20970;-70
2023/06/21 01:25:00;;;;;;;20.13;16.73;;;19.40;99.90;;;;;;4944954;28;206855;-71
2023/06/21 01:27:30;;;;;;;19.65;16.85;;;19.40;99.90;;;;;;4983142;28;20050;-70
2023/06/21 01:29:59;;;;;;;19.83;16.45;;;19.40;99.90;;;;;;4960327;28;203011;-70
2023/06/21 01:32:28;;;;;;;21.08;16.38;;;19.40;99.90;;;;;;4985902;28;20542;-70
2023/06/21 01:34:58;;;;;;;20.35;15.55;;;19.40;99.90;;;;;;4958265;28;207551;-70
2023/06/21 01:37:24;;;;;;;21.05;17.17;;;19.40;99.90;;;;;;4965966;28;20050;-71
2023/06/21 01:39:50;;;;;;;22.88;17.48;;;19.30;99.90;;;;;;4933004;28;207114;-71
2023/06/21 01:42:16;;;;;;;19.92;17.05;;;19.30;99.90;;;;;;4969600;28;20504;-71
2023/06/21 01:44:43;;;;;;;20.45;16.48;;;19.30;99.90;;;;;;4912098;28;207572;-70
2023/06/21 01:47:09;;;;;;;21.92;16.88;;;19.30;99.90;;;;;;4960925;28;20428;-71
2023/06/21 01:49:37;;;;;;;24.15;17.55;;;19.20;99.90;;;;;;4918802;28;209868;-72
2023/06/21 01:52:07;;;;;;;22.25;17.48;;;19.20;99.90;;;;;;4973078;28;20050;-70
2023/06/21 01:54:34;;;;;;;24.17;18.47;;;19.10;99.90;;;;;;4911110;28;207999;-70
2023/06/21 01:57:01;;;;;;;26.75;19.35;;;19.10;99.90;;;;;;4976144;28;20047;-71
2023/06/21 01:59:28;;;;;;;23.83;18.92;;;19.00;99.90;;;;;;4914089;28;206713;-71
2023/06/21 02:01:57;;;;;;;26.88;20.55;;;19.00;99.90;;;;;;4962793;28;21728;-70
2023/06/21 02:04:25;;;;;;;25.92;21.10;;;19.00;99.90;;;;;;4922501;28;212076;-71
2023/06/21 02:06:53;;;;;;;30.55;22.13;;;19.00;99.90;;;;;;4989719;28;20051;-71
2023/06/21 02:09:20;;;;;;;28.80;23.20;;;18.90;99.90;;;;;;4933125;28;206401;-70
2023/06/21 02:11:47;;;;;;;30.95;23.48;;;18.90;99.90;;;;;;4977254;28;20389;-72
2023/06/21 02:14:14;;;;;;;26.73;21.98;;;18.90;99.90;;;;;;4919877;28;207281;-71
2023/06/21 02:16:41;;;;;;;26.95;21.80;;;18.90;99.90;;;;;;4988288;28;20368;-72
2023/06/21 02:19:07;;;;;;;31.95;25.30;;;18.90;99.90;;;;;;4941756;28;207827;-71
2023/06/21 02:21:33;;;;;;;28.20;23.73;;;19.00;99.90;;;;;;5001042;28;20054;-71
2023/06/21 02:23:59;;;;;;;29.95;23.65;;;18.90;99.90;;;;;;4934590;28;42768;-71
2023/06/21 02:26:25;;;;;;;29.95;24.30;;;19.00;99.90;;;;;;5006079;28;20049;-72
2023/06/21 02:28:51;;;;;;;29.98;24.00;;;19.00;99.90;;;;;;4923378;28;210309;-72
2023/06/21 02:31:17;;;;;;;32.03;26.90;;;19.00;99.90;;;;;;4966428;28;20050;-67
2023/06/21 02:33:48;;;;;;;31.20;26.48;;;19.00;99.90;;;;;;4935078;28;207455;-70
2023/06/21 02:36:15;;;;;;;;;;;19.00;99.90;;;;;;4970554;28;20071;-70
2023/06/21 02:38:41;;;;;;;33.10;27.80;;;19.00;99.90;;;;;;4912524;28;208519;-70
2023/06/21 02:41:07;;;;;;;35.35;29.77;;;19.00;99.90;;;;;;5010197;28;20058;-70
2023/06/21 02:43:33;;;;;;;37.90;29.98;;;19.00;99.90;;;;;;4922215;28;214570;-70
2023/06/21 02:46:00;;;;;;;36.08;30.52;;;19.00;99.90;;;;;;4972460;28;20051;-70
2023/06/21 02:48:26;;;;;;;40.45;32.63;;;18.90;99.90;;;;;;4908059;28;216669;-70
2023/06/21 02:50:52;;;;;;;40.53;33.50;;;19.00;99.90;;;;;;4973989;28;20058;-71
2023/06/21 02:53:18;;;;;;;42.90;35.50;;;19.00;99.90;;;;;;4920056;28;207724;-67
2023/06/21 02:55:44;;;;;;;41.42;34.20;;;18.90;99.90;;;;;;4965399;28;251732;-70
2023/06/21 02:58:10;;;;;;;41.80;34.55;;;18.90;99.90;;;;;;4979713;28;20069;-70
2023/06/21 03:00:36;;;;;;;46.50;32.78;;;18.90;99.90;;;;;;4935875;28;207784;-70
2023/06/21 03:03:03;;;;;;;46.05;33.92;;;18.80;99.90;;;;;;4966353;28;20063;-70
2023/06/21 03:05:37;;;;;;;41.03;34.17;;;18.80;99.90;;;;;;4940752;28;206816;-70
2023/06/21 03:08:04;;;;;;;45.50;36.90;;;18.70;99.90;;;;;;4986364;28;20031;-70
2023/06/21 03:10:32;;;;;;;46.63;36.33;;;18.70;99.90;;;;;;4963769;28;207602;-70
2023/06/21 03:12:59;;;;;;;43.40;35.80;;;18.70;99.90;;;;;;4982381;28;20058;-72
2023/06/21 03:15:25;;;;;;;47.28;36.33;;;18.70;99.90;;;;;;4951693;28;215132;-71
2023/06/21 03:17:51;;;;;;;47.55;36.33;;;18.70;99.90;;;;;;4981304;28;20050;-70
2023/06/21 03:20:17;;;;;;;50.95;39.38;;;18.70;99.90;;;;;;4964228;28;208158;-70
2023/06/21 03:22:44;;;;;;;47.92;38.10;;;18.70;99.90;;;;;;4984825;28;20652;-70
2023/06/21 03:25:12;;;;;;;48.10;37.95;;;18.70;99.90;;;;;;4952066;28;210070;-71
2023/06/21 03:27:38;;;;;;;51.42;37.97;;;18.60;99.90;;;;;;4982965;28;20070;-71
2023/06/21 03:30:06;;;;;;;49.05;40.13;;;18.60;99.90;;;;;;4933803;28;210366;-70
2023/06/21 03:32:32;;;;;;;51.45;40.33;;;18.60;99.90;;;;;;4968155;28;20043;-73
2023/06/21 03:34:58;;;;;;;52.20;40.72;;;18.60;99.90;;;;;;4926454;28;206625;-72
2023/06/21 03:37:26;;;;;;;52.65;41.40;;;18.60;99.90;;;;;;4968906;28;20508;-70
2023/06/21 03:39:53;;;;;;;51.40;41.72;;;18.60;99.90;;;;;;4938048;28;207688;-70
2023/06/21 03:42:19;;;;;;;53.88;41.88;;;18.60;99.90;;;;;;4985080;28;20055;-70
2023/06/21 03:44:46;;;;;;;52.78;40.65;;;18.60;99.90;;;;;;4954081;28;208113;-70
2023/06/21 03:47:12;;;;;;;58.05;42.25;;;18.60;99.90;;;;;;4988573;28;20062;-70
2023/06/21 03:49:38;;;;;;;54.33;41.75;;;18.60;99.90;;;;;;4940931;28;212210;-70
2023/06/21 03:52:05;;;;;;;55.33;40.92;;;18.60;99.90;;;;;;4984372;28;20050;-70
2023/06/21 03:54:32;;;;;;;50.67;40.67;;;18.50;99.90;;;;;;4922497;28;209805;-71
2023/06/21 03:56:58;;;;;;;55.65;41.58;;;18.50;99.90;;;;;;4978145;28;20047;-70
2023/06/21 03:59:24;;;;;;;54.25;40.53;;;18.50;99.90;;;;;;4908147;28;208686;-70
2023/06/21 04:01:50;;;;;;;52.17;40.50;;;18.50;99.90;;;;;;4964717;28;20046;-71
2023/06/21 04:04:16;;;;;;;54.45;42.38;;;18.50;99.90;;;;;;4924230;28;125800;-71
2023/06/21 04:06:43;;;;;;;47.20;39.92;;;18.60;99.90;;;;;;4975285;28;20047;-71
2023/06/21 04:09:09;;;;;;;52.28;39.22;;;18.50;99.90;;;;;;4921400;28;209111;-71
2023/06/21 04:11:35;;;;;;;54.45;42.13;;;18.60;99.90;;;;;;4978382;28;20051;-71
2023/06/21 04:14:01;;;;;;;54.58;40.55;;;18.60;99.90;;;;;;4912512;28;211602;-71
2023/06/21 04:16:28;;;;;;;52.47;41.75;;;18.50;99.90;;;;;;4972827;28;20055;-70
2023/06/21 04:18:55;;;;;;;51.15;41.83;;;18.60;99.90;;;;;;4929938;28;209466;-71
2023/06/21 04:21:21;;;;;;;49.38;39.05;;;18.60;99.90;;;;;;4983169;28;20142;-71
2023/06/21 04:23:47;;;;;;;54.63;42.42;;;18.60;99.90;;;;;;4925857;28;207219;-71
2023/06/21 04:26:13;;;;;;;57.95;42.05;;;18.60;99.90;;;;;;4981956;28;20523;-70
2023/06/21 04:28:40;;;;;;;55.63;42.25;;;18.50;99.90;;;;;;4917393;28;206739;-71
2023/06/21 04:31:06;;;;;;;54.63;41.40;;;18.60;99.90;;;;;;4994368;28;20058;-71
2023/06/21 04:33:34;;;;;;;56.47;43.03;;;18.60;99.90;;;;;;4936579;28;209119;-72
2023/06/21 04:36:00;;;;;;;55.97;43.15;;;18.60;99.90;;;;;;4961810;28;20062;-70
2023/06/21 04:38:26;;;;;;;52.70;42.00;;;18.60;99.90;;;;;;4905838;28;208326;-72
2023/06/21 04:40:52;;;;;;;53.65;42.03;;;18.70;99.90;;;;;;4992012;28;20051;-71
2023/06/21 04:43:21;;;;;;;57.47;42.53;;;18.70;99.90;;;;;;4937496;28;209935;-67
2023/06/21 04:45:48;;;;;;;51.53;41.38;;;18.70;99.90;;;;;;4998472;28;20038;-71
2023/06/21 04:48:14;;;;;;;57.75;42.90;;;18.70;99.90;;;;;;4975251;28;211450;-72
2023/06/21 04:50:45;;;;;;;54.60;40.75;;;18.80;99.90;;;;;;4945772;28;134168;-72
2023/06/21 04:53:12;;;;;;;51.17;40.25;;;18.80;99.90;;;;;;4982777;28;20050;-71
2023/06/21 04:55:42;;;;;;;51.58;41.75;;;18.80;99.90;;;;;;4902849;28;154906;-71
2023/06/21 04:58:12;;;;;;;52.17;41.25;;;18.90;99.90;;;;;;4960728;28;20063;-71
2023/06/21 05:00:38;;;;;;;53.08;40.47;;;18.90;99.90;;;;;;4941756;28;209801;-71
2023/06/21 05:03:04;;;;;;;48.80;39.15;;;19.00;99.90;;;;;;4973019;28;20804;-70
2023/06/21 05:05:30;;;;;;;45.55;37.97;;;19.10;99.90;;;;;;4934360;28;207087;-71
2023/06/21 05:07:57;;;;;;;47.10;37.50;;;19.10;99.90;;;;;;4962032;28;20058;-70
2023/06/21 05:10:23;;;;;;;45.28;36.78;;;19.10;99.90;;;;;;4926667;28;207478;-71
2023/06/21 05:12:49;;;;;;;44.15;35.55;;;19.20;99.90;;;;;;4963361;28;20061;-71
2023/06/21 05:15:15;;;;;;;39.58;32.65;;;19.20;99.90;;;;;;4894945;28;144413;-71
2023/06/21 05:17:42;;;;;;;37.97;31.35;;;19.30;99.90;;;;;;4964155;28;20058;-72
2023/06/21 05:20:08;;;;;;;39.30;31.20;;;19.30;99.90;;;;;;4904777;28;166126;-71
2023/06/21 05:22:35;;;;;;;35.53;28.25;;;19.40;99.90;;;;;;4967611;28;20054;-71
2023/06/21 05:25:02;;;;;;;35.25;26.77;;;19.50;99.90;;;;;;4934547;28;211173;-72
2023/06/21 05:27:29;;;;;;;33.20;27.02;;;19.50;99.90;;;;;;4968593;28;20346;-72
2023/06/21 05:29:55;;;;;;;31.70;26.45;;;19.50;99.90;;;;;;4947000;28;206805;-72
2023/06/21 05:32:21;;;;;;;34.72;25.98;;;19.60;99.90;;;;;;4985613;28;20051;-71
2023/06/21 05:34:47;;;;;;;33.92;26.17;;;19.60;99.90;;;;;;4946164;28;207317;-71
2023/06/21 05:37:13;;;;;;;31.70;25.05;;;19.70;99.90;;;;;;4970699;28;20097;-71
2023/06/21 05:39:39;;;;;;;33.20;24.13;;;19.70;99.90;;;;;;4904078;28;207132;-71
2023/06/21 05:42:05;;;;;;;29.02;23.95;;;19.70;99.90;;;;;;4960477;28;20059;-71
2023/06/21 05:44:31;;;;;;;32.60;23.83;;;19.80;99.90;;;;;;4919877;28;218219;-72
2023/06/21 05:46:57;;;;;;;26.70;20.60;;;19.80;99.90;;;;;;4968702;28;20066;-72
2023/06/21 05:49:23;;;;;;;29.38;21.63;;;19.90;99.90;;;;;;4924467;28;216028;-72
2023/06/21 05:51:49;;;;;;;26.55;20.92;;;19.90;99.90;;;;;;4990290;28;20073;-72
2023/06/21 05:54:16;;;;;;;26.48;19.40;;;20.00;99.90;;;;;;4930549;28;209772;-71
2023/06/21 05:56:42;;;;;;;24.27;19.35;;;20.10;99.90;;;;;;4985852;28;20054;-71
2023/06/21 05:59:08;;;;;;;27.75;19.30;;;20.20;99.90;;;;;;4913954;28;209330;-70
2023/06/21 06:01:34;;;;;;;25.27;18.58;;;20.30;99.90;;;;;;4975753;28;20058;-70
2023/06/21 06:04:00;;;;;;;24.55;17.67;;;20.30;99.90;;;;;;4913063;28;213222;-71
2023/06/21 06:06:39;;;;;;;22.70;16.27;;;20.40;99.90;;;;;;4974881;28;20054;-70
2023/06/21 06:09:06;;;;;;;21.00;15.93;;;20.50;99.90;;;;;;4917552;28;212162;-71
2023/06/21 06:11:32;;;;;;;23.77;16.05;;;20.60;99.90;;;;;;4980910;28;20059;-70
2023/06/21 06:13:58;;;;;;;24.98;15.50;;;20.70;99.90;;;;;;4920318;28;210016;-70
2023/06/21 06:16:24;;;;;;;22.48;14.80;;;20.90;99.90;;;;;;4966187;28;20444;-71
2023/06/21 06:18:50;;;;;;;22.00;14.65;;;21.00;99.90;;;;;;4917445;28;209765;-71
2023/06/21 06:21:21;;;;;;;22.88;13.80;;;21.10;99.90;;;;;;4974131;28;20053;-71
2023/06/21 06:23:52;;;;;;;19.88;13.43;;;21.30;99.90;;;;;;4908633;28;208218;-70
2023/06/21 06:26:25;;;;;;;21.17;13.55;;;21.30;99.90;;;;;;4973884;28;20059;-71
2023/06/21 06:28:52;;;;;;;18.90;13.15;;;21.50;99.90;;;;;;4919704;28;195920;-71
2023/06/21 06:31:25;;;;;;;19.77;12.00;;;21.70;99.90;;;;;;4960768;28;20065;-71
2023/06/21 06:33:52;;;;;;;19.77;12.43;;;21.70;99.90;;;;;;4930191;28;214045;-71
2023/06/21 06:36:18;;;;;;;17.75;10.95;;;21.70;99.90;;;;;;4985739;28;20054;-71
2023/06/21 06:38:52;;;;;;;17.70;11.15;;;21.90;99.90;;;;;;4915706;28;177303;-71
2023/06/21 06:41:19;;;;;;;18.70;10.93;;;21.90;99.90;;;;;;4950559;28;20058;-72
2023/06/21 06:43:45;;;;;;;18.23;10.82;;;22.00;99.90;;;;;;4913939;28;245371;-71
2023/06/21 06:46:11;;;;;;;19.15;9.95;;;22.10;99.90;;;;;;4995962;28;20408;-71
2023/06/21 06:48:37;;;;;;;16.98;9.63;;;22.30;99.90;;;;;;4929629;28;206114;-71
2023/06/21 06:51:04;;;;;;;16.02;9.10;;;22.40;99.90;;;;;;4957961;28;20400;-71
2023/06/21 06:53:30;;;;;;;16.35;9.80;;;22.50;99.90;;;;;;4915047;28;206500;-71
2023/06/21 06:55:58;;;;;;;16.52;10.02;;;22.30;99.90;;;;;;5018299;28;20050;-71
2023/06/21 06:58:24;;;;;;;14.77;9.00;;;22.40;99.90;;;;;;4938139;28;207067;-71
2023/06/21 07:00:51;;;;;;;16.35;9.25;;;22.60;99.90;;;;;;5003220;28;20062;-71
2023/06/21 07:03:17;;;;;;;23.00;9.50;;;22.80;99.90;;;;;;4959205;28;207850;-71
2023/06/21 07:05:45;;;;;;;14.10;8.45;;;22.90;99.90;;;;;;4974119;28;207658;-71
2023/06/21 07:08:11;;;;;;;14.43;8.50;;;23.10;99.90;;;;;;4988935;28;20038;-71
2023/06/21 07:10:38;;;;;;;15.02;8.20;;;23.20;99.90;;;;;;4959271;28;212606;-71
2023/06/21 07:13:05;;;;;;;13.50;7.43;;;23.00;99.90;;;;;;4985601;28;20050;-70
2023/06/21 07:15:32;;;;;;;15.55;8.48;;;23.00;99.90;;;;;;4952099;28;206948;-71
2023/06/21 07:17:58;;;;;;;13.80;8.20;;;23.10;99.90;;;;;;4967902;28;20058;-71
2023/06/21 07:20:24;;;;;;;14.65;8.23;;;23.20;99.90;;;;;;4959244;28;207848;-71
2023/06/21 07:22:50;;;;;;;15.23;8.88;;;23.40;99.90;;;;;;5001717;28;20061;-71
2023/06/21 07:25:16;;;;;;;13.95;7.82;;;23.80;99.90;;;;;;4968060;28;212484;-71
2023/06/21 07:27:42;;;;;;;14.55;7.50;;;24.30;99.90;;;;;;4984913;28;20065;-71
2023/06/21 07:30:09;;;;;;;12.27;7.32;;;24.50;99.90;;;;;;4953834;28;213513;-70
2023/06/21 07:32:35;;;;;;;14.85;7.82;;;24.20;99.90;;;;;;4991258;28;20054;-71
2023/06/21 07:35:02;;;;;;;14.35;8.00;;;24.20;99.90;;;;;;4936356;28;204281;-71
2023/06/21 07:37:29;;;;;;;12.93;7.60;;;24.40;99.90;;;;;;4967980;28;20062;-70
2023/06/21 07:39:56;;;;;;;12.98;7.47;;;24.50;99.90;;;;;;4936084;28;188417;-70
2023/06/21 07:42:22;;;;;;;13.23;7.05;;;24.60;99.90;;;;;;4972540;28;20055;-71
2023/06/21 07:44:50;;;;;;;11.98;6.30;;;24.90;99.90;;;;;;4940949;28;207733;-71
2023/06/21 07:47:17;;;;;;;12.27;5.78;;;24.70;99.90;;;;;;4973330;28;20055;-71
2023/06/21 07:49:43;;;;;;;13.55;6.80;;;24.80;99.90;;;;;;4939725;28;209118;-71
2023/06/21 07:52:10;;;;;;;12.30;6.40;;;24.60;99.90;;;;;;4974172;28;20058;-71
2023/06/21 07:54:37;;;;;;;11.25;6.28;;;24.60;99.90;;;;;;4927745;28;208402;-71
2023/06/21 07:57:03;;;;;;;10.80;6.07;;;24.50;99.90;;;;;;4997641;28;20050;-71
2023/06/21 07:59:31;;;;;;;11.60;6.20;;;24.70;99.90;;;;;;4945872;28;206207;-71
2023/06/21 08:01:57;;;;;;;11.13;5.75;;;24.70;99.90;;;;;;4999446;28;20057;-71
2023/06/21 08:04:23;;;;;;;15.00;5.97;;;24.90;99.90;;;;;;4949604;28;214106;-72
2023/06/21 08:06:49;;;;;;;11.75;5.63;;;25.10;99.90;;;;;;4999041;28;20065;-72
2023/06/21 08:09:15;;;;;;;12.07;6.15;;;25.30;99.30;;;;;;4937214;28;206575;-72
2023/06/21 08:11:41;;;;;;;12.05;5.57;;;25.20;99.70;;;;;;4984942;28;20059;-72
2023/06/21 08:14:07;;;;;;;10.50;5.68;;;25.30;99.90;;;;;;4920900;28;210645;-72
2023/06/21 08:16:34;;;;;;;10.55;5.07;;;25.40;99.80;;;;;;4982191;28;20058;-73
2023/06/21 08:19:00;;;;;;;10.07;4.90;;;25.40;99.40;;;;;;4933253;28;208507;-72
2023/06/21 08:21:26;;;;;;;10.45;5.18;;;25.00;99.40;;;;;;4983344;28;20443;-72
2023/06/21 08:23:52;;;;;;;10.88;4.88;;;25.00;99.90;;;;;;4923035;28;208761;-73
2023/06/21 08:26:18;;;;;;;9.82;5.10;;;25.30;98.80;;;;;;4987201;28;20061;-72
2023/06/21 08:28:45;;;;;;;11.35;5.38;;;25.30;98.60;;;;;;4918065;28;207351;-73
2023/06/21 08:31:12;;;;;;;11.57;5.45;;;25.20;99.20;;;;;;4998501;28;20065;-73
2023/06/21 08:33:38;;;;;;;9.98;5.22;;;25.30;99.30;;;;;;4936155;28;207835;-72
2023/06/21 08:36:06;;;;;;;10.10;4.95;;;25.60;99.20;;;;;;4975127;28;20058;-73
2023/06/21 08:38:32;;;;;;;9.80;4.70;;;25.90;98.90;;;;;;4918957;28;207022;-73
2023/06/21 08:41:02;;;;;;;10.38;5.00;;;26.20;98.60;;;;;;4984574;28;20047;-72
2023/06/21 08:43:29;;;;;;;11.45;4.45;;;26.00;97.10;;;;;;4898424;28;209341;-73
2023/06/21 08:45:56;;;;;;;10.60;4.43;;;25.70;97.90;;;;;;4976662;28;20046;-73
2023/06/21 08:48:23;;;;;;;10.07;4.22;;;25.40;98.50;;;;;;4912627;28;209461;-72
2023/06/21 08:50:52;;;;;;;10.75;4.35;;;25.80;98.80;;;;;;4998124;28;20043;-73
2023/06/21 08:53:29;;;;;;;10.13;4.43;;;26.10;98.30;;;;;;4962843;28;205832;-72
2023/06/21 08:55:57;;;;;;;11.45;4.70;;;26.40;98.20;;;;;;4951650;28;20037;-72
2023/06/21 08:58:26;;;;;;;12.48;4.40;;;26.40;97.30;;;;;;4939675;28;207901;-72
2023/06/21 09:00:58;;;;;;;10.30;4.45;;;26.70;97.00;;;;;;5016441;28;20062;-73
2023/06/21 09:03:28;;;;;;;10.32;4.00;;;27.00;97.50;;;;;;4932547;28;220113;-71
2023/06/21 09:06:00;;;;;;;10.10;4.38;;;27.30;96.70;;;;;;4966748;28;20069;-72
2023/06/21 09:08:26;;;;;;;11.90;4.07;;;27.10;97.00;;;;;;4916802;28;206914;-72
2023/06/21 09:10:53;;;;;;;10.20;4.00;;;27.10;96.60;;;;;;5013094;28;20516;-73
2023/06/21 09:13:20;;;;;;;9.60;4.10;;;27.40;97.10;;;;;;4937035;28;208722;-71
2023/06/21 09:15:48;;;;;;;11.25;4.00;;;27.90;96.70;;;;;;4970529;28;20388;-73
2023/06/21 09:18:15;;;;;;;9.02;3.45;;;28.00;96.20;;;;;;4946133;28;212492;-71
2023/06/21 09:20:46;;;;;;;10.00;4.20;;;28.20;95.60;;;;;;4983003;28;94472;-73
2023/06/21 09:23:12;;;;;;;9.77;3.72;;;28.50;94.70;;;;;;4986463;28;20069;-73
2023/06/21 09:25:38;;;;;;;10.10;3.67;;;28.80;94.50;;;;;;4945529;28;252856;-74
2023/06/21 09:28:04;;;;;;;7.85;3.83;;;28.50;94.90;;;;;;4967718;28;20055;-74
2023/06/21 09:30:30;;;;;;;9.95;3.90;;;28.50;94.10;;;;;;4944873;28;211138;-74
2023/06/21 09:32:57;;;;;;;9.40;3.75;;;28.80;95.20;;;;;;4986184;28;20638;-74
2023/06/21 09:35:24;;;;;;;9.45;3.35;;;28.90;95.10;;;;;;4919914;28;164896;-74
2023/06/21 09:37:50;;;;;;;7.20;2.90;;;29.30;94.00;;;;;;4962040;28;20066;-73
2023/06/21 09:40:16;;;;;;;8.00;3.10;;;29.30;93.20;;;;;;4924629;28;168505;-74
2023/06/21 09:42:45;;;;;;;9.75;3.20;;;29.30;93.80;;;;;;4963268;28;20053;-74
2023/06/21 09:45:12;;;;;;;8.57;3.08;;;30.70;93.10;;;;;;4931712;28;184288;-74
2023/06/21 09:47:41;;;;;;;8.30;2.97;;;31.50;92.30;;;;;;4962466;28;20055;-73
2023/06/21 09:50:09;;;;;;;8.45;3.10;;;31.30;91.90;;;;;;4943651;28;207564;-74
2023/06/21 09:52:35;;;;;;;9.00;3.83;;;31.20;91.80;;;;;;4967837;28;20051;-74
2023/06/21 09:55:03;;;;;;;9.02;3.40;;;31.00;91.70;;;;;;4921376;28;206923;-74
2023/06/21 09:57:31;;;;;;;9.10;3.10;;;30.70;91.80;;;;;;4967394;28;20424;-73
2023/06/21 09:59:59;;;;;;;8.88;3.05;;;30.60;91.30;;;;;;4949168;28;206060;-74
2023/06/21 10:02:26;;;;;;;8.20;2.63;;;30.00;91.70;;;;;;4987399;28;20057;-74
2023/06/21 10:04:54;;;;;;;8.23;2.50;;;30.30;91.60;;;;;;4947278;28;210154;-74
2023/06/21 10:07:21;;;;;;;7.72;3.30;;;30.50;91.70;;;;;;4986562;28;20065;-75
2023/06/21 10:09:48;;;;;;;7.60;3.17;;;30.90;91.30;;;;;;4947198;28;207059;-74
2023/06/21 10:12:15;;;;;;;8.20;3.25;;;30.40;91.50;;;;;;4973510;28;20057;-74
2023/06/21 10:14:42;;;;;;;7.93;3.10;;;29.40;91.90;;;;;;4952730;28;212702;-73
2023/06/21 10:17:08;;;;;;;8.25;3.20;;;29.20;92.20;;;;;;4986116;28;21137;-73
2023/06/21 10:19:35;;;;;;;8.90;3.10;;;29.50;91.90;;;;;;4940271;28;212726;-74
2023/06/21 10:22:05;;;;;;;7.90;2.90;;;30.00;91.50;;;;;;4970895;28;20055;-74
2023/06/21 10:24:46;;;;;;;7.95;2.33;;;30.50;91.50;;;;;;4928114;28;206963;-72
2023/06/21 10:27:13;;;;;;;7.20;2.60;;;30.60;90.50;;;;;;4992416;28;20065;-71
2023/06/21 10:29:42;;;;;;;8.32;2.67;;;30.20;90.90;;;;;;4937863;28;216606;-72
2023/06/21 10:32:09;;;;;;;9.30;3.00;;;30.00;91.20;;;;;;4978656;28;20059;-73
2023/06/21 10:35:13;;;;;;;9.10;2.78;;;29.80;91.60;;;;;;4926630;28;206621;-72
2023/06/21 10:38:07;;;;;;;7.65;2.85;;;29.40;91.20;;;;;;4968906;28;20054;-71
2023/06/21 10:40:35;;;;;;;7.22;2.65;;;29.50;91.60;;;;;;4934221;28;205474;-72
2023/06/21 10:43:03;;;;;;;9.60;2.92;;;29.10;91.70;;;;;;4963037;28;20055;-72
2023/06/21 10:45:31;;;;;;;8.90;2.72;;;29.30;91.30;;;;;;4924829;28;213924;-70
2023/06/21 10:47:57;;;;;;;7.40;2.47;;;29.20;90.90;;;;;;4966173;28;20054;-72
2023/06/21 10:50:24;;;;;;;7.35;2.72;;;28.70;91.30;;;;;;4900069;28;207214;-71
2023/06/21 10:52:54;;;;;;;7.53;2.53;;;28.00;91.80;;;;;;4970466;28;20401;-72
2023/06/21 10:55:21;;;;;;;6.68;2.30;;;27.40;92.20;;;;;;4897632;28;209898;-71
2023/06/21 10:57:52;;;;;;;7.03;2.28;;;27.60;92.30;;;;;;4964256;28;20143;-71
2023/06/21 11:00:21;;;;;;;7.97;2.60;;;27.80;92.00;;;;;;4969495;28;207668;-71
2023/06/21 11:02:47;;;;;;;6.95;2.10;;;27.70;91.90;;;;;;4993042;28;20057;-71
2023/06/21 11:05:19;;;;;;;8.68;2.30;;;28.00;91.80;;;;;;4945254;28;210505;-71
2023/06/21 11:07:56;;;;;;;7.70;2.97;;;28.20;92.00;;;;;;4967993;28;20054;-71
2023/06/21 11:10:31;;;;;;;7.78;2.40;;;27.90;91.80;;;;;;4944323;28;210453;-71
2023/06/21 11:12:57;;;;;;;7.57;2.35;;;27.30;91.90;;;;;;4965863;28;20050;-69
2023/06/21 11:15:27;;;;;;;7.03;2.47;;;26.90;92.40;;;;;;4967200;28;212946;-72
2023/06/21 11:18:06;;;;;;;8.80;2.33;;;26.90;92.70;;;;;;4982177;28;20099;-72
2023/06/21 11:20:50;;;;;;;6.72;2.20;;;27.30;92.60;;;;;;4936321;28;206394;-71
2023/06/21 11:23:24;;;;;;;7.97;2.88;;;27.60;92.50;;;;;;4943806;28;209692;-71
2023/06/21 11:26:01;;;;;;;7.43;2.75;;;27.70;92.50;;;;;;4959066;28;20042;-71
2023/06/21 11:28:35;;;;;;;8.93;2.90;;;27.60;92.30;;;;;;4910030;28;208095;-70
2023/06/21 11:31:01;;;;;;;8.00;2.58;;;27.20;92.50;;;;;;4979780;28;20062;-71
2023/06/21 11:33:29;;;;;;;7.90;2.83;;;26.90;92.70;;;;;;4916400;28;209150;-71
2023/06/21 11:36:07;;;;;;;9.30;2.85;;;26.90;92.90;;;;;;4951648;28;20054;-71
2023/06/21 11:38:35;;;;;;;8.38;3.00;;;26.90;92.70;;;;;;4910992;28;214889;-71
2023/06/21 11:41:22;;;;;;;7.57;2.85;;;26.80;92.90;;;;;;4996777;28;20054;-72
2023/06/21 11:43:57;;;;;;;7.72;2.92;;;26.80;92.70;;;;;;4941672;28;207194;-72
2023/06/21 11:46:27;;;;;;;7.40;2.47;;;26.70;93.00;;;;;;4980876;28;20057;-72
2023/06/21 11:48:59;;;;;;;7.90;2.33;;;27.00;92.90;;;;;;4914973;28;206579;-70
2023/06/21 11:51:27;;;;;;;8.35;2.75;;;27.20;92.70;;;;;;4977479;28;20066;-71
2023/06/21 11:53:55;;;;;;;7.78;2.78;;;27.00;92.70;;;;;;4904072;28;209368;-72
2023/06/21 11:56:21;;;;;;;8.20;2.75;;;26.90;93.20;;;;;;5012421;28;20054;-70
2023/06/21 11:58:50;;;;;;;10.00;3.13;;;27.00;92.90;;;;;;4941131;28;207269;-72
2023/06/21 12:01:16;;;;;;;8.55;2.90;;;27.00;92.80;;;;;;5005158;28;20046;-72
2023/06/21 12:03:42;;;;;;;10.95;3.20;;;27.10;92.80;;;;;;4946765;28;208170;-72
2023/06/21 12:06:08;;;;;;;8.52;3.20;;;27.10;93.00;;;;;;5006003;28;20495;-72
2023/06/21 12:08:36;;;;;;;9.57;2.90;;;27.50;92.80;;;;;;4938280;28;210357;-71
2023/06/21 12:11:04;;;;;;;8.30;2.95;;;28.00;92.90;;;;;;5012546;28;20042;-72
2023/06/21 12:13:31;;;;;;;8.00;2.90;;;28.00;92.50;;;;;;4946737;28;207339;-71
2023/06/21 12:16:04;;;;;;;7.40;2.60;;;28.40;91.90;;;;;;5012568;28;20047;-73
2023/06/21 12:18:32;;;;;;;7.70;2.80;;;28.10;91.50;;;;;;4921008;28;210237;-72
2023/06/21 12:21:01;;;;;;;8.38;2.85;;;28.10;91.70;;;;;;5016953;28;20050;-72
2023/06/21 12:23:30;;;;;;;8.90;2.85;;;28.70;91.60;;;;;;4932663;28;207599;-72
2023/06/21 12:26:00;;;;;;;8.07;2.37;;;29.10;91.60;;;;;;5006569;28;20051;-71
2023/06/21 12:28:26;;;;;;;6.23;2.30;;;28.90;91.00;;;;;;4931198;28;213879;-71
2023/06/21 12:31:02;;;;;;;7.75;2.40;;;28.70;90.80;;;;;;4995016;28;20082;-72
2023/06/21 12:33:34;;;;;;;7.37;2.20;;;29.00;90.40;;;;;;4913253;28;222490;-72
2023/06/21 12:36:20;;;;;;;7.22;1.80;;;29.20;90.50;;;;;;5005832;28;20059;-71